createdAt,value
2022-09-02T00:00:31.079Z,0.00
2022-09-02T00:01:31.116Z,0.00
2022-09-02T00:02:31.128Z,0.00
2022-09-02T00:03:31.072Z,0.00
2022-09-02T00:04:30.950Z,0.00
2022-09-02T00:05:30.940Z,0.00
2022-09-02T00:06:30.961Z,0.00
2022-09-02T00:07:30.996Z,0.00
2022-09-02T00:08:30.933Z,0.00
2022-09-02T00:09:31.040Z,0.00
2022-09-02T00:10:30.859Z,0.00
2022-09-02T00:11:30.858Z,0.00
2022-09-02T00:12:30.887Z,0.00
2022-09-02T00:13:30.873Z,0.00
2022-09-02T00:14:30.824Z,0.00
2022-09-02T00:15:30.810Z,0.00
2022-09-02T00:16:30.832Z,0.00
2022-09-02T00:17:30.807Z,0.00
2022-09-02T00:18:30.788Z,0.00
2022-09-02T00:19:30.781Z,0.00
2022-09-02T00:20:30.760Z,0.00
2022-09-02T00:21:30.767Z,0.00
2022-09-02T00:22:30.773Z,0.00
2022-09-02T00:23:30.714Z,0.00
2022-09-02T00:24:30.710Z,0.00
2022-09-02T00:25:30.691Z,0.00
2022-09-02T00:26:30.682Z,0.00
2022-09-02T00:27:30.719Z,0.00
2022-09-02T00:28:30.689Z,0.00
2022-09-02T00:29:30.660Z,0.00
2022-09-02T00:30:30.726Z,0.00
2022-09-02T00:31:30.656Z,0.00
2022-09-02T00:32:30.680Z,0.00
2022-09-02T00:33:30.609Z,0.00
2022-09-02T00:34:30.677Z,0.00
2022-09-02T00:35:30.582Z,0.00
2022-09-02T00:36:30.598Z,0.00
2022-09-02T00:37:30.616Z,0.00
2022-09-02T00:38:30.697Z,0.00
2022-09-02T00:39:30.566Z,0.00
2022-09-02T00:40:30.850Z,0.00
2022-09-02T00:41:30.614Z,0.00
2022-09-02T00:42:30.641Z,0.00
2022-09-02T00:43:30.496Z,0.00
2022-09-02T00:44:30.527Z,0.00
2022-09-02T00:45:30.689Z,0.00
2022-09-02T00:46:30.669Z,0.00
2022-09-02T00:47:30.486Z,0.00
2022-09-02T00:48:30.480Z,0.00
2022-09-02T00:49:30.437Z,0.00
2022-09-02T00:50:30.732Z,0.00
2022-09-02T00:51:30.992Z,0.00
2022-09-02T00:52:30.446Z,0.00
2022-09-02T00:53:30.412Z,0.00
2022-09-02T00:54:30.565Z,0.00
2022-09-02T00:55:30.583Z,0.00
2022-09-02T00:56:30.723Z,0.00
2022-09-02T00:57:30.633Z,0.00
2022-09-02T00:58:30.553Z,0.00
2022-09-02T00:59:30.516Z,0.00
2022-09-02T01:00:31.196Z,0.00
2022-09-02T01:01:30.591Z,0.00
2022-09-02T01:02:30.327Z,0.00
2022-09-02T01:03:30.479Z,0.00
2022-09-02T01:04:30.324Z,0.00
2022-09-02T01:05:30.482Z,0.00
2022-09-02T01:06:30.478Z,0.00
2022-09-02T01:07:30.657Z,0.00
2022-09-02T01:08:30.334Z,0.00
2022-09-02T01:09:30.421Z,0.00
2022-09-02T01:10:30.235Z,0.00
2022-09-02T01:11:30.509Z,0.00
2022-09-02T01:12:30.264Z,0.00
2022-09-02T01:13:30.380Z,0.00
2022-09-02T01:14:30.302Z,0.00
2022-09-02T01:15:30.269Z,0.00
2022-09-02T01:16:30.400Z,0.00
2022-09-02T01:17:30.456Z,0.00
2022-09-02T01:18:30.271Z,0.00
2022-09-02T01:19:30.231Z,0.00
2022-09-02T01:20:30.265Z,0.00
2022-09-02T01:21:30.365Z,0.00
2022-09-02T01:22:30.321Z,0.00
2022-09-02T01:23:31.130Z,0.00
2022-09-02T01:24:30.162Z,0.00
2022-09-02T01:25:30.072Z,0.00
2022-09-02T01:26:30.114Z,0.00
2022-09-02T01:27:30.271Z,0.00
2022-09-02T01:28:30.087Z,0.00
2022-09-02T01:29:30.046Z,0.00
2022-09-02T01:30:30.062Z,0.00
2022-09-02T01:31:30.278Z,0.00
2022-09-02T01:32:30.007Z,0.00
2022-09-02T01:33:30.036Z,0.00
2022-09-02T01:34:30.063Z,0.00
2022-09-02T01:35:29.974Z,0.00
2022-09-02T01:36:29.944Z,0.00
2022-09-02T01:37:30.148Z,0.00
2022-09-02T01:38:29.992Z,0.00
2022-09-02T01:39:30.079Z,0.00
2022-09-02T01:40:30.470Z,0.00
2022-09-02T01:41:30.006Z,0.00
2022-09-02T01:42:29.922Z,0.00
2022-09-02T01:43:29.889Z,0.00
2022-09-02T01:44:29.875Z,0.00
2022-09-02T01:45:29.889Z,0.00
2022-09-02T01:46:29.974Z,0.00
2022-09-02T01:47:30.113Z,0.00
2022-09-02T01:48:29.888Z,0.00
2022-09-02T01:49:30.121Z,0.00
2022-09-02T01:50:30.837Z,0.00
2022-09-02T01:51:29.756Z,0.00
2022-09-02T01:52:29.759Z,0.00
2022-09-02T01:53:29.864Z,0.00
2022-09-02T01:54:29.786Z,0.00
2022-09-02T01:55:29.922Z,0.00
2022-09-02T01:56:29.802Z,0.00
2022-09-02T01:57:29.813Z,0.00
2022-09-02T01:58:30.028Z,0.00
2022-09-02T01:59:29.772Z,0.00
2022-09-02T02:00:29.782Z,0.00
2022-09-02T02:01:29.636Z,0.00
2022-09-02T02:02:29.729Z,0.00
2022-09-02T02:03:29.775Z,0.00
2022-09-02T02:04:29.867Z,0.00
2022-09-02T02:05:29.656Z,0.00
2022-09-02T02:06:29.960Z,0.00
2022-09-02T02:07:29.623Z,0.00
2022-09-02T02:08:29.636Z,0.00
2022-09-02T02:09:29.677Z,0.00
2022-09-02T02:10:29.581Z,0.00
2022-09-02T02:11:29.545Z,0.00
2022-09-02T02:12:29.621Z,0.00
2022-09-02T02:13:29.752Z,0.00
2022-09-02T02:14:29.631Z,0.00
2022-09-02T02:16:03.878Z,0.00
2022-09-02T02:17:03.827Z,0.00
2022-09-02T02:18:03.993Z,0.00
2022-09-02T02:19:03.712Z,0.00
2022-09-02T02:20:03.681Z,0.00
2022-09-02T02:21:03.805Z,0.00
2022-09-02T02:22:03.852Z,0.00
2022-09-02T02:23:03.642Z,0.00
2022-09-02T02:24:03.591Z,0.00
2022-09-02T02:25:03.664Z,0.00
2022-09-02T02:26:03.584Z,0.00
2022-09-02T02:27:03.624Z,0.00
2022-09-02T02:28:03.606Z,0.00
2022-09-02T02:29:03.568Z,0.00
2022-09-02T02:30:03.529Z,0.00
2022-09-02T02:31:03.593Z,0.00
2022-09-02T02:32:03.586Z,0.00
2022-09-02T02:33:03.917Z,0.00
2022-09-02T02:34:03.564Z,0.00
2022-09-02T02:35:03.540Z,0.00
2022-09-02T02:36:03.647Z,0.00
2022-09-02T02:37:03.497Z,0.00
2022-09-02T02:38:04.033Z,0.00
2022-09-02T02:39:03.516Z,0.00
2022-09-02T02:40:03.455Z,0.00
2022-09-02T02:41:03.572Z,0.00
2022-09-02T02:42:03.458Z,0.00
2022-09-02T02:43:03.463Z,0.00
2022-09-02T02:44:03.415Z,0.00
2022-09-02T02:45:03.557Z,0.00
2022-09-02T02:46:03.473Z,0.00
2022-09-02T02:47:03.393Z,0.00
2022-09-02T02:48:03.515Z,0.00
2022-09-02T02:49:03.435Z,0.00
2022-09-02T02:50:03.360Z,0.00
2022-09-02T02:51:03.342Z,0.00
2022-09-02T02:52:03.409Z,0.00
2022-09-02T02:53:03.312Z,0.00
2022-09-02T02:54:03.451Z,0.00
2022-09-02T02:55:03.397Z,0.00
2022-09-02T02:56:03.410Z,0.00
2022-09-02T02:57:03.366Z,0.00
2022-09-02T02:58:03.308Z,0.00
2022-09-02T02:59:03.702Z,0.00
2022-09-02T03:00:03.257Z,0.00
2022-09-02T03:01:03.482Z,0.00
2022-09-02T03:02:03.460Z,0.00
2022-09-02T03:03:03.208Z,0.00
2022-09-02T03:04:03.363Z,0.00
2022-09-02T03:05:03.263Z,0.00
2022-09-02T03:06:03.153Z,0.00
2022-09-02T03:07:03.145Z,0.00
2022-09-02T03:08:03.269Z,0.00
2022-09-02T03:09:03.306Z,0.00
2022-09-02T03:10:03.235Z,0.00
2022-09-02T03:11:03.084Z,0.00
2022-09-02T03:12:03.283Z,0.00
2022-09-02T03:13:03.157Z,0.00
2022-09-02T03:14:03.376Z,0.00
2022-09-02T03:15:03.060Z,0.00
2022-09-02T03:16:03.150Z,0.00
2022-09-02T03:17:03.056Z,0.00
2022-09-02T03:18:03.031Z,0.00
2022-09-02T03:19:03.064Z,0.00
2022-09-02T03:20:03.071Z,0.00
2022-09-02T03:21:03.050Z,0.00
2022-09-02T03:22:03.107Z,0.00
2022-09-02T03:23:02.977Z,0.00
2022-09-02T03:24:02.973Z,0.00
2022-09-02T03:25:03.181Z,0.00
2022-09-02T03:26:02.997Z,0.00
2022-09-02T03:27:03.088Z,0.00
2022-09-02T03:28:02.902Z,0.00
2022-09-02T03:29:02.919Z,0.00
2022-09-02T03:30:02.985Z,0.00
2022-09-02T03:31:03.025Z,0.00
2022-09-02T03:32:03.103Z,0.00
2022-09-02T03:33:04.270Z,0.00
2022-09-02T03:34:03.148Z,0.00
2022-09-02T03:35:02.939Z,0.00
2022-09-02T03:36:02.821Z,0.00
2022-09-02T03:37:02.843Z,0.00
2022-09-02T03:38:02.831Z,0.00
2022-09-02T03:39:03.250Z,0.00
2022-09-02T03:40:02.887Z,0.00
2022-09-02T03:41:03.680Z,0.00
2022-09-02T03:42:02.784Z,0.00
2022-09-02T03:43:02.750Z,0.00
2022-09-02T03:44:02.711Z,0.00
2022-09-02T03:45:02.847Z,0.00
2022-09-02T03:46:03.029Z,0.00
2022-09-02T03:47:02.729Z,0.00
2022-09-02T03:48:02.703Z,0.00
2022-09-02T03:49:02.670Z,0.00
2022-09-02T03:50:02.647Z,0.00
2022-09-02T03:51:02.730Z,0.00
2022-09-02T03:52:02.670Z,0.00
2022-09-02T03:53:02.635Z,0.00
2022-09-02T03:54:02.636Z,0.00
2022-09-02T03:55:02.859Z,0.00
2022-09-02T03:56:02.917Z,0.00
2022-09-02T03:57:02.680Z,0.00
2022-09-02T03:58:06.551Z,0.00
2022-09-02T04:00:15.353Z,0.00
2022-09-02T04:01:15.235Z,0.00
2022-09-02T04:02:15.369Z,0.00
2022-09-02T04:03:15.321Z,4.00
2022-09-02T04:04:16.972Z,4.00
2022-09-02T04:05:15.748Z,0.00
2022-09-02T04:06:15.116Z,4.00
2022-09-02T04:07:15.144Z,4.00
2022-09-02T04:08:15.143Z,4.00
2022-09-02T04:09:15.114Z,4.00
2022-09-02T04:10:15.106Z,4.00
2022-09-02T04:11:15.126Z,4.00
2022-09-02T04:12:15.093Z,8.00
2022-09-02T04:13:15.088Z,8.00
2022-09-02T04:14:15.038Z,8.00
2022-09-02T04:15:15.177Z,12.00
2022-09-02T04:16:15.076Z,16.00
2022-09-02T04:17:15.008Z,16.00
2022-09-02T04:18:15.029Z,20.00
2022-09-02T04:19:15.030Z,24.00
2022-09-02T04:20:15.006Z,24.00
2022-09-02T04:21:14.986Z,28.00
2022-09-02T04:22:14.978Z,36.00
2022-09-02T04:23:14.990Z,44.00
2022-09-02T04:24:14.954Z,48.00
2022-09-02T04:25:14.936Z,60.00
2022-09-02T04:26:14.958Z,68.00
2022-09-02T04:27:14.903Z,80.00
2022-09-02T04:28:14.934Z,92.00
2022-09-02T04:29:14.875Z,108.00
2022-09-02T04:30:14.891Z,124.00
2022-09-02T04:31:14.913Z,140.00
2022-09-02T04:32:14.864Z,160.00
2022-09-02T04:33:14.910Z,180.00
2022-09-02T04:34:14.932Z,204.00
2022-09-02T04:35:14.852Z,228.00
2022-09-02T04:36:14.913Z,252.00
2022-09-02T04:37:14.799Z,284.00
2022-09-02T04:38:14.775Z,316.00
2022-09-02T04:39:14.766Z,348.00
2022-09-02T04:40:14.769Z,380.00
2022-09-02T04:41:14.774Z,420.00
2022-09-02T04:42:15.063Z,460.00
2022-09-02T04:43:14.803Z,504.00
2022-09-02T04:44:14.718Z,544.00
2022-09-02T04:45:14.798Z,588.00
2022-09-02T04:46:15.728Z,636.00
2022-09-02T04:47:14.676Z,688.00
2022-09-02T04:48:14.657Z,736.00
2022-09-02T04:49:14.754Z,788.00
2022-09-02T04:50:14.639Z,840.00
2022-09-02T04:51:14.655Z,896.00
2022-09-02T04:52:14.636Z,952.00
2022-09-02T04:53:14.792Z,1012.00
2022-09-02T04:54:14.594Z,1068.00
2022-09-02T04:55:14.609Z,1128.00
2022-09-02T04:56:14.697Z,1188.00
2022-09-02T04:57:14.561Z,1248.00
2022-09-02T04:58:14.543Z,1308.00
2022-09-02T04:59:14.543Z,1372.00
2022-09-02T05:00:14.548Z,1436.00
2022-09-02T05:01:14.644Z,1504.00
2022-09-02T05:02:14.703Z,1564.00
2022-09-02T05:03:14.589Z,1632.00
2022-09-02T05:04:14.509Z,1696.00
2022-09-02T05:05:14.598Z,1764.00
2022-09-02T05:06:14.496Z,1832.00
2022-09-02T05:07:14.534Z,1896.00
2022-09-02T05:08:14.453Z,1968.00
2022-09-02T05:09:14.460Z,2032.00
2022-09-02T05:10:14.435Z,2100.00
2022-09-02T05:11:14.412Z,2168.00
2022-09-02T05:12:14.414Z,2236.00
2022-09-02T05:13:14.458Z,2304.00
2022-09-02T05:14:14.395Z,2372.00
2022-09-02T05:15:14.371Z,2436.00
2022-09-02T05:16:14.401Z,2508.00
2022-09-02T05:17:14.454Z,2576.00
2022-09-02T05:18:14.365Z,2640.00
2022-09-02T05:19:14.703Z,2712.00
2022-09-02T05:20:14.387Z,2776.00
2022-09-02T05:21:14.403Z,2848.00
2022-09-02T05:22:14.420Z,2912.00
2022-09-02T05:23:14.320Z,2972.00
2022-09-02T05:24:14.301Z,3032.00
2022-09-02T05:25:14.262Z,3084.00
2022-09-02T05:26:14.273Z,3140.00
2022-09-02T05:27:14.266Z,3200.00
2022-09-02T05:28:14.236Z,3252.00
2022-09-02T05:29:14.242Z,3308.00
2022-09-02T05:30:14.239Z,3360.00
2022-09-02T05:31:14.255Z,3412.00
2022-09-02T05:32:14.215Z,3464.00
2022-09-02T05:33:15.137Z,3516.00
2022-09-02T05:34:14.162Z,3568.00
2022-09-02T05:35:14.148Z,3616.00
2022-09-02T05:36:14.159Z,3668.00
2022-09-02T05:37:14.141Z,3720.00
2022-09-02T05:38:14.167Z,3768.00
2022-09-02T05:39:14.133Z,3816.00
2022-09-02T05:40:14.954Z,3864.00
2022-09-02T05:41:14.101Z,3916.00
2022-09-02T05:42:14.082Z,3964.00
2022-09-02T05:43:14.130Z,4016.00
2022-09-02T05:44:14.077Z,4064.00
2022-09-02T05:45:16.697Z,4112.00
2022-09-02T05:46:14.119Z,4160.00
2022-09-02T05:47:14.133Z,4208.00
2022-09-02T05:48:14.149Z,4264.00
2022-09-02T05:49:14.003Z,4312.00
2022-09-02T05:50:14.394Z,4364.00
2022-09-02T05:51:14.061Z,4416.00
2022-09-02T05:52:13.973Z,4464.00
2022-09-02T05:53:14.455Z,4504.00
2022-09-02T05:54:13.954Z,4552.00
2022-09-02T05:55:13.946Z,4592.00
2022-09-02T05:56:13.926Z,4636.00
2022-09-02T05:57:13.913Z,4684.00
2022-09-02T05:58:13.905Z,4728.00
2022-09-02T05:59:13.888Z,4776.00
2022-09-02T06:00:17.878Z,4820.00
2022-09-02T06:01:13.864Z,4868.00
2022-09-02T06:02:14.000Z,4920.00
2022-09-02T06:03:14.008Z,4964.00
2022-09-02T06:04:13.835Z,5008.00
2022-09-02T06:05:13.827Z,5056.00
2022-09-02T06:06:13.823Z,5104.00
2022-09-02T06:07:13.873Z,5152.00
2022-09-02T06:08:13.837Z,5200.00
2022-09-02T06:09:13.786Z,5244.00
2022-09-02T06:10:13.787Z,5284.00
2022-09-02T06:11:13.774Z,5328.00
2022-09-02T06:12:13.759Z,5376.00
2022-09-02T06:13:13.876Z,5420.00
2022-09-02T06:14:13.738Z,5472.00
2022-09-02T06:15:13.823Z,5516.00
2022-09-02T06:16:13.744Z,5568.00
2022-09-02T06:17:13.723Z,5612.00
2022-09-02T06:18:14.387Z,5660.00
2022-09-02T06:19:17.723Z,5700.00
2022-09-02T06:20:14.672Z,5744.00
2022-09-02T06:21:13.670Z,5788.00
2022-09-02T06:22:13.625Z,5828.00
2022-09-02T06:23:13.727Z,5872.00
2022-09-02T06:24:13.627Z,5916.00
2022-09-02T06:25:13.620Z,5956.00
2022-09-02T06:26:13.597Z,5996.00
2022-09-02T06:27:13.596Z,6044.00
2022-09-02T06:28:13.637Z,6084.00
2022-09-02T06:29:13.608Z,6124.00
2022-09-02T06:30:13.585Z,6160.00
2022-09-02T06:31:13.669Z,6196.00
2022-09-02T06:32:13.591Z,6228.00
2022-09-02T06:33:13.578Z,6264.00
2022-09-02T06:34:13.510Z,6292.00
2022-09-02T06:35:13.545Z,6320.00
2022-09-02T06:36:13.520Z,6352.00
2022-09-02T06:37:13.474Z,6380.00
2022-09-02T06:38:13.483Z,6408.00
2022-09-02T06:39:13.477Z,6452.00
2022-09-02T06:40:13.511Z,6468.00
2022-09-02T06:41:13.444Z,6500.00
2022-09-02T06:42:13.428Z,6528.00
2022-09-02T06:43:13.429Z,6552.00
2022-09-02T06:44:15.184Z,6588.00
2022-09-02T06:45:13.424Z,6608.00
2022-09-02T06:46:16.671Z,6636.00
2022-09-02T06:47:13.372Z,6664.00
2022-09-02T06:48:13.379Z,6692.00
2022-09-02T06:49:13.340Z,6716.00
2022-09-02T06:50:13.392Z,6748.00
2022-09-02T06:51:14.225Z,6768.00
2022-09-02T06:52:13.319Z,6800.00
2022-09-02T06:53:13.360Z,6828.00
2022-09-02T06:54:20.312Z,6852.00
2022-09-02T06:55:13.282Z,6880.00
2022-09-02T06:56:16.050Z,6908.00
2022-09-02T06:57:13.261Z,6924.00
2022-09-02T06:58:13.240Z,6948.00
2022-09-02T06:59:13.216Z,6972.00
2022-09-02T07:00:13.252Z,6996.00
2022-09-02T07:01:13.324Z,7028.00
2022-09-02T07:02:13.462Z,7056.00
2022-09-02T07:03:13.369Z,7084.00
2022-09-02T07:04:13.206Z,7112.00
2022-09-02T07:05:13.225Z,7148.00
2022-09-02T07:06:13.160Z,7160.00
2022-09-02T07:07:13.147Z,7196.00
2022-09-02T07:08:13.136Z,7224.00
2022-09-02T07:09:13.122Z,7256.00
2022-09-02T07:10:13.113Z,7288.00
2022-09-02T07:11:13.125Z,7320.00
2022-09-02T07:12:13.116Z,7356.00
2022-09-02T07:13:13.091Z,7388.00
2022-09-02T07:14:13.064Z,7408.00
2022-09-02T07:15:13.064Z,7428.00
2022-09-02T07:16:13.081Z,7452.00
2022-09-02T07:17:14.097Z,7476.00
2022-09-02T07:18:13.032Z,7500.00
2022-09-02T07:19:16.227Z,7516.00
2022-09-02T07:20:14.014Z,7540.00
2022-09-02T07:21:12.980Z,7568.00
2022-09-02T07:22:13.021Z,7580.00
2022-09-02T07:23:14.060Z,7592.00
2022-09-02T07:24:12.973Z,7616.00
2022-09-02T07:25:12.954Z,7640.00
2022-09-02T07:26:12.942Z,7664.00
2022-09-02T07:27:12.933Z,7692.00
2022-09-02T07:28:12.912Z,7712.00
2022-09-02T07:29:12.905Z,7736.00
2022-09-02T07:30:12.882Z,7784.00
2022-09-02T07:31:12.941Z,7784.00
2022-09-02T07:32:12.863Z,7796.00
2022-09-02T07:33:12.864Z,7828.00
2022-09-02T07:34:12.849Z,7864.00
2022-09-02T07:35:12.845Z,7900.00
2022-09-02T07:36:12.826Z,7944.00
2022-09-02T07:37:12.818Z,7988.00
2022-09-02T07:38:12.798Z,8044.00
2022-09-02T07:39:12.846Z,8108.00
2022-09-02T07:40:12.808Z,8164.00
2022-09-02T07:41:12.766Z,8240.00
2022-09-02T07:42:12.763Z,8400.00
2022-09-02T07:43:12.753Z,8436.00
2022-09-02T07:44:12.750Z,8572.00
2022-09-02T07:45:12.807Z,8684.00
2022-09-02T07:46:12.825Z,8768.00
2022-09-02T07:47:12.698Z,8852.00
2022-09-02T07:48:12.695Z,8880.00
2022-09-02T07:49:12.677Z,8860.00
2022-09-02T07:50:18.970Z,8912.00
2022-09-02T07:51:13.807Z,8780.00
2022-09-02T07:52:12.649Z,8724.00
2022-09-02T07:53:12.645Z,8696.00
2022-09-02T07:54:12.626Z,8612.00
2022-09-02T07:55:14.956Z,8968.00
2022-09-02T07:56:12.617Z,8536.00
2022-09-02T07:57:12.599Z,8888.00
2022-09-02T07:58:12.590Z,8524.00
2022-09-02T07:59:12.569Z,8564.00
2022-09-02T08:00:12.598Z,8576.00
2022-09-02T08:01:12.646Z,8572.00
2022-09-02T08:02:12.567Z,8608.00
2022-09-02T08:03:12.538Z,8624.00
2022-09-02T08:04:12.504Z,8676.00
2022-09-02T08:05:12.493Z,8680.00
2022-09-02T08:06:12.520Z,8700.00
2022-09-02T08:07:12.506Z,8728.00
2022-09-02T08:08:12.512Z,8768.00
2022-09-02T08:09:12.457Z,8812.00
2022-09-02T08:10:12.449Z,8848.00
2022-09-02T08:11:12.422Z,8880.00
2022-09-02T08:12:12.427Z,8892.00
2022-09-02T08:13:12.427Z,8920.00
2022-09-02T08:14:12.511Z,8960.00
2022-09-02T08:15:12.389Z,8996.00
2022-09-02T08:16:12.475Z,9016.00
2022-09-02T08:17:12.397Z,9072.00
2022-09-02T08:18:21.611Z,9084.00
2022-09-02T08:19:13.362Z,9124.00
2022-09-02T08:20:12.775Z,9164.00
2022-09-02T08:21:12.387Z,9204.00
2022-09-02T08:22:12.498Z,9236.00
2022-09-02T08:23:19.377Z,9268.00
2022-09-02T08:24:13.292Z,9300.00
2022-09-02T08:25:12.731Z,9332.00
2022-09-02T08:26:12.434Z,9368.00
2022-09-02T08:27:12.414Z,9392.00
2022-09-02T08:28:12.320Z,9420.00
2022-09-02T08:29:12.306Z,9468.00
2022-09-02T08:30:12.352Z,9476.00
2022-09-02T08:31:12.232Z,9504.00
2022-09-02T08:32:12.347Z,9524.00
2022-09-02T08:33:12.264Z,9552.00
2022-09-02T08:34:12.190Z,9564.00
2022-09-02T08:35:12.177Z,9592.00
2022-09-02T08:36:12.187Z,9584.00
2022-09-02T08:37:12.149Z,9584.00
2022-09-02T08:38:12.146Z,9612.00
2022-09-02T08:39:12.147Z,9664.00
2022-09-02T08:40:12.153Z,9696.00
2022-09-02T08:41:12.118Z,9724.00
2022-09-02T08:42:12.100Z,9792.00
2022-09-02T08:43:12.086Z,9812.00
2022-09-02T08:44:12.086Z,9828.00
2022-09-02T08:45:12.078Z,9808.00
2022-09-02T08:46:12.234Z,9548.00
2022-09-02T08:47:12.044Z,9872.00
2022-09-02T08:48:12.036Z,9840.00
2022-09-02T08:49:12.027Z,9864.00
2022-09-02T08:50:12.008Z,9940.00
2022-09-02T08:51:12.010Z,10032.00
2022-09-02T08:52:15.892Z,10044.00
2022-09-02T08:53:13.192Z,10052.00
2022-09-02T08:54:12.143Z,10068.00
2022-09-02T08:55:11.958Z,10088.00
2022-09-02T08:56:11.969Z,10144.00
2022-09-02T08:57:11.926Z,10152.00
2022-09-02T08:58:11.917Z,10140.00
2022-09-02T08:59:11.923Z,10172.00
2022-09-02T09:00:11.913Z,10236.00
2022-09-02T09:01:11.944Z,10260.00
2022-09-02T09:02:11.922Z,10268.00
2022-09-02T09:03:12.860Z,10316.00
2022-09-02T09:04:11.864Z,10340.00
2022-09-02T09:05:11.856Z,10404.00
2022-09-02T09:06:11.843Z,10444.00
2022-09-02T09:07:11.832Z,10476.00
2022-09-02T09:08:14.572Z,10496.00
2022-09-02T09:09:11.814Z,10508.00
2022-09-02T09:10:11.800Z,10532.00
2022-09-02T09:11:11.777Z,10564.00
2022-09-02T09:12:11.777Z,10632.00
2022-09-02T09:13:11.763Z,10568.00
2022-09-02T09:14:11.749Z,10604.00
2022-09-02T09:15:11.777Z,10656.00
2022-09-02T09:16:11.769Z,10692.00
2022-09-02T09:17:11.815Z,10716.00
2022-09-02T09:18:11.704Z,10744.00
2022-09-02T09:19:11.721Z,10772.00
2022-09-02T09:20:11.686Z,10820.00
2022-09-02T09:21:11.713Z,10848.00
2022-09-02T09:22:11.647Z,10940.00
2022-09-02T09:23:11.654Z,10892.00
2022-09-02T09:24:11.822Z,10904.00
2022-09-02T09:25:11.641Z,10992.00
2022-09-02T09:26:11.653Z,10992.00
2022-09-02T09:27:11.614Z,11048.00
2022-09-02T09:28:11.609Z,11096.00
2022-09-02T09:29:11.580Z,11248.00
2022-09-02T09:30:15.027Z,11196.00
2022-09-02T09:31:11.595Z,11216.00
2022-09-02T09:32:11.586Z,11264.00
2022-09-02T09:33:11.550Z,11284.00
2022-09-02T09:34:11.531Z,11264.00
2022-09-02T09:35:11.532Z,11308.00
2022-09-02T09:36:13.653Z,11324.00
2022-09-02T09:37:11.530Z,11352.00
2022-09-02T09:38:11.492Z,11392.00
2022-09-02T09:39:11.477Z,11424.00
2022-09-02T09:40:11.538Z,11476.00
2022-09-02T09:41:11.455Z,11508.00
2022-09-02T09:42:11.480Z,11548.00
2022-09-02T09:43:15.179Z,11600.00
2022-09-02T09:44:11.427Z,11644.00
2022-09-02T09:45:11.432Z,11704.00
2022-09-02T09:46:11.482Z,11780.00
2022-09-02T09:47:15.948Z,11864.00
2022-09-02T09:48:12.387Z,11920.00
2022-09-02T09:49:11.367Z,11984.00
2022-09-02T09:50:11.364Z,12048.00
2022-09-02T09:51:11.370Z,12108.00
2022-09-02T09:52:11.352Z,12132.00
2022-09-02T09:53:11.322Z,12192.00
2022-09-02T09:54:11.313Z,12292.00
2022-09-02T09:55:12.545Z,12284.00
2022-09-02T09:56:11.305Z,12324.00
2022-09-02T09:57:11.296Z,12380.00
2022-09-02T09:58:11.272Z,12480.00
2022-09-02T09:59:11.260Z,12492.00
2022-09-02T10:00:11.273Z,12464.00
2022-09-02T10:01:11.293Z,12432.00
2022-09-02T10:02:11.314Z,12380.00
2022-09-02T10:03:11.219Z,12356.00
2022-09-02T10:04:42.360Z,12384.00
2022-09-02T10:05:12.209Z,12380.00
2022-09-02T10:06:11.197Z,12356.00
2022-09-02T10:07:11.197Z,12348.00
2022-09-02T10:08:15.354Z,12308.00
2022-09-02T10:09:11.144Z,12524.00
2022-09-02T10:10:11.147Z,12600.00
2022-09-02T10:11:11.148Z,12592.00
2022-09-02T10:12:11.114Z,12612.00
2022-09-02T10:13:11.130Z,12676.00
2022-09-02T10:14:11.094Z,12736.00
2022-09-02T10:15:12.589Z,12736.00
2022-09-02T10:16:11.129Z,12788.00
2022-09-02T10:17:11.068Z,12804.00
2022-09-02T10:18:11.050Z,12800.00
2022-09-02T10:19:11.037Z,12828.00
2022-09-02T10:20:11.021Z,12972.00
2022-09-02T10:21:15.241Z,12996.00
2022-09-02T10:22:11.012Z,13000.00
2022-09-02T10:23:11.010Z,13016.00
2022-09-02T10:24:11.016Z,12992.00
2022-09-02T10:25:11.073Z,12984.00
2022-09-02T10:26:11.039Z,13112.00
2022-09-02T10:27:10.959Z,13172.00
2022-09-02T10:28:10.956Z,13216.00
2022-09-02T10:29:11.089Z,13312.00
2022-09-02T10:30:10.937Z,13380.00
2022-09-02T10:31:11.052Z,13424.00
2022-09-02T10:32:10.922Z,13412.00
2022-09-02T10:33:10.936Z,13456.00
2022-09-02T10:34:10.883Z,13528.00
2022-09-02T10:35:10.878Z,13548.00
2022-09-02T10:36:15.402Z,13556.00
2022-09-02T10:37:11.883Z,13584.00
2022-09-02T10:38:10.918Z,13716.00
2022-09-02T10:39:10.854Z,13752.00
2022-09-02T10:40:10.903Z,13816.00
2022-09-02T10:41:10.810Z,13944.00
2022-09-02T10:42:10.826Z,14156.00
2022-09-02T10:43:10.834Z,14260.00
2022-09-02T10:44:10.768Z,14396.00
2022-09-02T10:45:10.781Z,14628.00
2022-09-02T10:46:10.801Z,14992.00
2022-09-02T10:47:10.746Z,15388.00
2022-09-02T10:48:10.754Z,15300.00
2022-09-02T10:49:10.752Z,15436.00
2022-09-02T10:50:10.728Z,15712.00
2022-09-02T10:51:10.706Z,16124.00
2022-09-02T10:52:10.754Z,16704.00
2022-09-02T10:53:10.730Z,16864.00
2022-09-02T10:54:10.696Z,16704.00
2022-09-02T10:55:10.675Z,16704.00
2022-09-02T10:56:10.668Z,16832.00
2022-09-02T10:57:10.678Z,17056.00
2022-09-02T10:58:10.621Z,17056.00
2022-09-02T10:59:10.678Z,17056.00
2022-09-02T11:00:10.703Z,16356.00
2022-09-02T11:01:10.804Z,16368.00
2022-09-02T11:02:10.611Z,16864.00
2022-09-02T11:03:10.639Z,17184.00
2022-09-02T11:04:10.566Z,17216.00
2022-09-02T11:05:11.238Z,17088.00
2022-09-02T11:06:10.549Z,16960.00
2022-09-02T11:07:10.553Z,17088.00
2022-09-02T11:08:10.551Z,17632.00
2022-09-02T11:09:10.513Z,17984.00
2022-09-02T11:10:10.581Z,18400.00
2022-09-02T11:11:10.492Z,18720.00
2022-09-02T11:12:10.489Z,15556.00
2022-09-02T11:13:11.246Z,15596.00
2022-09-02T11:14:10.534Z,15532.00
2022-09-02T11:15:11.458Z,15964.00
2022-09-02T11:16:10.774Z,21120.00
2022-09-02T11:17:12.889Z,54944.00
2022-09-02T11:18:10.460Z,59840.00
2022-09-02T11:19:10.560Z,59072.00
2022-09-02T11:20:10.388Z,59840.00
2022-09-02T11:21:10.396Z,57440.00
2022-09-02T11:22:10.441Z,19264.00
2022-09-02T11:23:10.376Z,58112.00
2022-09-02T11:24:10.343Z,38208.00
2022-09-02T11:25:10.338Z,15912.00
2022-09-02T11:26:10.329Z,14716.00
2022-09-02T11:27:25.790Z,14372.00
2022-09-02T11:28:11.685Z,14552.00
2022-09-02T11:29:10.314Z,15072.00
2022-09-02T11:30:10.290Z,61984.00
2022-09-02T11:31:10.296Z,62656.00
2022-09-02T11:32:10.273Z,63648.00
2022-09-02T11:33:10.354Z,63968.00
2022-09-02T11:34:10.269Z,59040.00
2022-09-02T11:35:10.244Z,56992.00
2022-09-02T11:36:10.235Z,57568.00
2022-09-02T11:37:10.776Z,67296.00
2022-09-02T11:38:10.233Z,59360.00
2022-09-02T11:39:10.221Z,43296.00
2022-09-02T11:40:33.221Z,17568.00
2022-09-02T11:42:11.242Z,17344.00
2022-09-02T11:43:10.193Z,17632.00
2022-09-02T11:44:10.149Z,17888.00
2022-09-02T11:45:10.194Z,18368.00
2022-09-02T11:46:10.172Z,58432.00
2022-09-02T11:47:10.137Z,20384.00
2022-09-02T11:48:10.134Z,16808.00
2022-09-02T11:49:10.130Z,16008.00
2022-09-02T11:50:10.111Z,15760.00
2022-09-02T11:51:10.308Z,15632.00
2022-09-02T11:52:10.176Z,15812.00
2022-09-02T11:53:10.049Z,16520.00
2022-09-02T11:54:10.040Z,19328.00
2022-09-02T11:55:10.061Z,68544.00
2022-09-02T11:56:10.018Z,75296.00
2022-09-02T11:57:09.999Z,76704.00
2022-09-02T11:58:10.005Z,73568.00
2022-09-02T11:59:10.047Z,73728.00
2022-09-02T12:00:10.003Z,75616.00
2022-09-02T12:01:13.764Z,76160.00
2022-09-02T12:02:09.955Z,76704.00
2022-09-02T12:03:28.370Z,76064.00
2022-09-02T12:05:11.725Z,16496.00
2022-09-02T12:06:10.132Z,26592.00
2022-09-02T12:07:10.664Z,18880.00
2022-09-02T12:08:09.896Z,16152.00
2022-09-02T12:09:09.887Z,15644.00
2022-09-02T12:10:09.905Z,15588.00
2022-09-02T12:11:09.864Z,15740.00
2022-09-02T12:12:09.868Z,16296.00
2022-09-02T12:13:10.071Z,17728.00
2022-09-02T12:14:09.949Z,70400.00
2022-09-02T12:15:09.818Z,19136.00
2022-09-02T12:16:09.833Z,19456.00
2022-09-02T12:17:09.809Z,63552.00
2022-09-02T12:18:09.797Z,34912.00
2022-09-02T12:19:09.789Z,38368.00
2022-09-02T12:20:09.824Z,22656.00
2022-09-02T12:21:15.964Z,19232.00
2022-09-02T12:22:10.782Z,18336.00
2022-09-02T12:23:09.762Z,17632.00
2022-09-02T12:24:09.737Z,17472.00
2022-09-02T12:25:09.750Z,18528.00
2022-09-02T12:26:12.965Z,18688.00
2022-09-02T12:27:10.708Z,16832.00